Time;durP1;ratioP1;P1;durP2;ratioP2;P2;SDS_P1;SDS_P2;PMS_P1;PMS_P2;Temp;Humidity;BMP_temperature;BMP_pressure;BME280_temperature;BME280_humidity;BME280_pressure;Samples;Min_cycle;Max_cycle;Signal;HPM_P1;HPM_P2
2023/06/16 00:00:11;;;;;;;;;;;;;;;22.02;28.86;97506.72;5038349;28;923;-78
2023/06/16 00:02:41;;;;;;;;;;;;;;;21.87;29.46;97500.00;5005930;28;844;-77
2023/06/16 00:05:10;;;;;;;;;;;;;;;21.99;29.06;97499.16;5022329;28;963;-78
2023/06/16 00:07:36;;;;;;;;;;;;;;;21.84;29.47;97496.81;5022542;28;1907;-77
2023/06/16 00:10:03;;;;;;;;;;;;;;;21.84;29.54;97496.81;5038350;28;877;-78
2023/06/16 00:12:28;;;;;;;;;;;;;;;22.03;29.23;97486.44;5039005;28;946;-78
2023/06/16 00:14:54;;;;;;;;;;;;;;;21.89;29.47;97486.16;5021638;28;834;-77
2023/06/16 00:17:20;;;;;;;;;;;;;;;21.89;29.13;97486.94;5038738;28;1026;-78
2023/06/16 00:19:47;;;;;;;;;;;;;;;21.93;29.07;97481.16;5038185;28;960;-78
2023/06/16 00:22:12;;;;;;;;;;;;;;;21.97;29.33;97481.81;5021951;28;917;-78
2023/06/16 00:24:38;;;;;;;;;;;;;;;22.01;29.37;97476.81;5038199;28;906;-77
2023/06/16 00:27:03;;;;;;;;;;;;;;;21.93;29.34;97479.13;5038685;28;1901;-77
2023/06/16 00:29:29;;;;;;;;;;;;;;;21.60;29.63;97470.16;5021779;28;1115;-77
2023/06/16 00:31:55;;;;;;;;;;;;;;;21.78;29.51;97483.72;5022943;28;963;-77
2023/06/16 00:34:21;;;;;;;;;;;;;;;21.74;29.57;97481.00;4998261;28;1234;-77
2023/06/16 00:36:46;;;;;;;;;;;;;;;21.90;29.40;97488.53;4998747;28;996;-78
2023/06/16 00:39:12;;;;;;;;;;;;;;;22.03;29.04;97479.97;4998676;28;816;-78
2023/06/16 00:41:37;;;;;;;;;;;;;;;21.97;28.84;97487.50;4999504;28;1133;-76
2023/06/16 00:44:03;;;;;;;;;;;;;;;21.93;29.22;97481.16;4982541;28;1080;-77
2023/06/16 00:46:29;;;;;;;;;;;;;;;21.91;29.06;97481.59;4998920;28;1189;-77
2023/06/16 00:48:55;;;;;;;;;;;;;;;21.63;29.66;97480.59;4998719;28;1980;-78
2023/06/16 00:51:21;;;;;;;;;;;;;;;21.55;29.50;97480.06;4982346;28;997;-77
2023/06/16 00:53:47;;;;;;;;;;;;;;;21.90;29.36;97471.53;4982097;28;1236;-78
2023/06/16 00:56:12;;;;;;;;;;;;;;;22.04;28.92;97475.88;4966811;28;954;-77
2023/06/16 00:58:38;;;;;;;;;;;;;;;21.68;29.69;97468.69;4982106;28;1014;-78
2023/06/16 01:01:04;;;;;;;;;;;;;;;21.90;29.37;97470.75;4999075;28;1135;-77
2023/06/16 01:03:32;;;;;;;;;;;;;;;21.92;29.35;97473.91;4998058;28;930;-77
2023/06/16 01:05:57;;;;;;;;;;;;;;;22.02;29.13;97464.22;5013377;28;1168;-77
2023/06/16 01:08:29;;;;;;;;;;;;;;;21.83;29.42;97463.28;5021818;28;1902;-78
2023/06/16 01:11:06;;;;;;;;;;;;;;;21.73;29.62;97456.75;5040370;28;909;-78
2023/06/16 01:13:52;;;;;;;;;;;;;;;21.95;29.13;97453.94;5039122;28;859;-78
2023/06/16 01:16:18;;;;;;;;;;;;;;;21.78;29.39;97447.69;5022055;28;1067;-78
2023/06/16 01:18:44;;;;;;;;;;;;;;;21.75;29.79;97448.59;5038227;28;767;-78
2023/06/16 01:21:17;;;;;;;;;;;;;;;21.94;29.25;97460.06;5021056;28;1126;-78
2023/06/16 01:23:54;;;;;;;;;;;;;;;22.11;29.30;97464.31;5004438;28;930;-78
2023/06/16 01:26:22;;;;;;;;;;;;;;;22.05;29.25;97460.47;5005006;28;1515;-78
2023/06/16 01:28:49;;;;;;;;;;;;;;;21.77;29.78;97462.31;4972980;28;1995;-78
2023/06/16 01:31:17;;;;;;;;;;;;;;;21.74;29.90;97455.50;5005021;28;1172;-77
2023/06/16 01:33:43;;;;;;;;;;;;;;;22.04;29.39;97456.06;5036984;28;1053;-77
2023/06/16 01:36:08;;;;;;;;;;;;;;;21.71;29.89;97450.78;5004909;28;1405;-78
2023/06/16 01:38:34;;;;;;;;;;;;;;;21.93;29.61;97462.13;5003544;28;1078;-78
2023/06/16 01:41:01;;;;;;;;;;;;;;;21.75;29.74;97457.09;5021384;28;1139;-78
2023/06/16 01:43:29;;;;;;;;;;;;;;;21.95;29.39;97456.00;4972634;28;1131;-77
2023/06/16 01:45:57;;;;;;;;;;;;;;;21.66;29.92;97465.53;5021231;28;1128;-77
2023/06/16 01:48:23;;;;;;;;;;;;;;;21.79;29.54;97465.47;5019991;28;1973;-77
2023/06/16 01:50:48;;;;;;;;;;;;;;;21.89;29.43;97464.28;5004502;28;1374;-78
2023/06/16 01:53:16;;;;;;;;;;;;;;;21.78;29.66;97464.66;5038393;28;928;-78
2023/06/16 01:55:48;;;;;;;;;;;;;;;21.99;29.46;97462.31;5022354;28;1210;-78
2023/06/16 01:58:13;;;;;;;;;;;;;;;21.75;29.79;97459.91;5021004;28;1087;-77
2023/06/16 02:00:42;;;;;;;;;;;;;;;21.72;29.75;97462.91;5021333;28;1461;-78
2023/06/16 02:03:19;;;;;;;;;;;;;;;21.68;29.72;97465.84;5021433;28;1178;-77
2023/06/16 02:05:46;;;;;;;;;;;;;;;21.67;30.05;97463.47;5037809;28;975;-78
2023/06/16 02:08:12;;;;;;;;;;;;;;;22.06;29.09;97467.72;5037238;28;1914;-77
2023/06/16 02:10:37;;;;;;;;;;;;;;;22.07;29.34;97464.44;5021567;28;1344;-78
2023/06/16 02:13:03;;;;;;;;;;;;;;;22.04;29.13;97475.88;5020586;28;2171;-77
2023/06/16 02:15:28;;;;;;;;;;;;;;;22.06;29.15;97473.38;5020533;28;909;-77
2023/06/16 02:17:57;;;;;;;;;;;;;;;21.96;29.26;97477.38;5038787;28;978;-78
2023/06/16 02:20:24;;;;;;;;;;;;;;;21.80;29.45;97473.50;5037622;28;759;-78
2023/06/16 02:22:50;;;;;;;;;;;;;;;21.62;29.96;97470.50;5037102;28;936;-78
2023/06/16 02:25:16;;;;;;;;;;;;;;;21.66;29.65;97464.69;5035976;28;1037;-79
2023/06/16 02:27:43;;;;;;;;;;;;;;;21.78;29.71;97459.00;4996687;28;1985;-77
2023/06/16 02:30:10;;;;;;;;;;;;;;;21.81;29.45;97463.78;4996502;28;1194;-77
2023/06/16 02:32:36;;;;;;;;;;;;;;;21.62;29.84;97456.34;4980743;28;1116;-78
2023/06/16 02:35:03;;;;;;;;;;;;;;;21.88;29.54;97462.72;4996371;28;1139;-78
2023/06/16 02:37:29;;;;;;;;;;;;;;;21.90;29.17;97459.41;4964725;28;958;-78
2023/06/16 02:39:55;;;;;;;;;;;;;;;21.93;29.22;97452.84;4980219;28;1044;-77
2023/06/16 02:42:21;;;;;;;;;;;;;;;21.91;29.31;97455.31;4964489;28;1434;-77
2023/06/16 02:44:47;;;;;;;;;;;;;;;21.89;29.34;97458.63;4996165;28;1238;-78
2023/06/16 02:47:13;;;;;;;;;;;;;;;21.73;29.55;97461.63;4948178;28;1947;-78
2023/06/16 02:49:42;;;;;;;;;;;;;;;21.74;29.57;97461.16;4961220;28;1128;-78
2023/06/16 02:52:09;;;;;;;;;;;;;;;21.84;29.71;97467.72;4945400;28;1268;-78
2023/06/16 02:54:35;;;;;;;;;;;;;;;21.82;29.75;97465.34;4944994;28;1405;-78
2023/06/16 02:57:01;;;;;;;;;;;;;;;21.84;29.76;97462.81;4945241;29;1082;-78
2023/06/16 02:59:39;;;;;;;;;;;;;;;21.73;29.88;97461.63;4957401;29;1100;-78
2023/06/16 03:02:05;;;;;;;;;;;;;;;21.41;30.15;97460.72;4958101;29;1266;-78
2023/06/16 03:04:43;;;;;;;;;;;;;;;21.83;29.85;97461.25;4954132;28;1255;-78
2023/06/16 03:07:17;;;;;;;;;;;;;;;21.99;29.48;97462.31;4965146;28;1973;-78
2023/06/16 03:09:45;;;;;;;;;;;;;;;21.95;29.34;97467.31;4995883;28;1151;-78
2023/06/16 03:12:11;;;;;;;;;;;;;;;21.98;29.50;97460.75;4996630;28;1193;-78
2023/06/16 03:14:45;;;;;;;;;;;;;;;22.00;29.50;97458.22;4995747;28;1164;-78
2023/06/16 03:17:20;;;;;;;;;;;;;;;22.18;29.16;97458.41;4996278;28;974;-77
2023/06/16 03:19:49;;;;;;;;;;;;;;;21.78;29.86;97459.00;4974686;28;1057;-78
2023/06/16 03:22:17;;;;;;;;;;;;;;;21.92;29.43;97456.94;4976821;28;1072;-78
2023/06/16 03:24:44;;;;;;;;;;;;;;;22.08;29.26;97449.00;4975988;28;1284;-78
2023/06/16 03:27:11;;;;;;;;;;;;;;;22.09;29.16;97452.63;4961231;28;1964;-78
2023/06/16 03:29:47;;;;;;;;;;;;;;;21.99;29.27;97462.31;4949586;28;1456;-78
2023/06/16 03:32:13;;;;;;;;;;;;;;;21.90;29.45;97459.41;4981124;28;1105;-78
2023/06/16 03:34:38;;;;;;;;;;;;;;;22.13;29.18;97452.53;4979936;28;929;-78
2023/06/16 03:37:04;;;;;;;;;;;;;;;21.79;29.71;97448.47;4981104;28;1255;-77
2023/06/16 03:39:36;;;;;;;;;;;;;;;21.79;29.58;97437.16;4964602;28;1278;-77
2023/06/16 03:42:01;;;;;;;;;;;;;;;21.92;29.54;97445.59;4942505;29;1176;-78
2023/06/16 03:44:28;;;;;;;;;;;;;;;21.78;29.92;97447.69;4942262;29;1069;-78
2023/06/16 03:46:53;;;;;;;;;;;;;;;21.74;29.95;97444.19;4945487;28;1978;-77
2023/06/16 03:49:20;;;;;;;;;;;;;;;21.87;29.73;97443.34;4945037;29;1145;-78
2023/06/16 03:51:46;;;;;;;;;;;;;;;21.76;29.74;97444.53;4978587;28;1408;-78
2023/06/16 03:54:12;;;;;;;;;;;;;;;21.81;29.81;97446.78;4979560;28;1279;-78
2023/06/16 03:56:38;;;;;;;;;;;;;;;21.67;29.80;97441.63;4964125;28;1281;-77
2023/06/16 03:59:05;;;;;;;;;;;;;;;21.83;29.76;97444.25;4967070;28;1290;-78
2023/06/16 04:01:31;;;;;;;;;;;;;;;22.02;29.53;97445.19;4983301;28;1167;-77
2023/06/16 04:03:58;;;;;;;;;;;;;;;22.03;29.39;97446.00;4999210;28;1085;-78
2023/06/16 04:06:25;;;;;;;;;;;;;;;21.89;29.51;97446.50;4999652;28;1360;-78
2023/06/16 04:08:56;;;;;;;;;;;;;;;21.83;29.92;97444.25;4998960;28;1910;-78
2023/06/16 04:11:22;;;;;;;;;;;;;;;21.92;29.49;97445.59;4999442;28;1147;-77
2023/06/16 04:13:49;;;;;;;;;;;;;;;21.94;29.62;97454.41;5015670;28;1125;-77
2023/06/16 04:16:15;;;;;;;;;;;;;;;21.90;29.62;97450.91;5038530;28;1141;-78
2023/06/16 04:18:43;;;;;;;;;;;;;;;21.78;29.82;97452.56;5021879;28;1163;-78
2023/06/16 04:21:08;;;;;;;;;;;;;;;21.90;29.76;97445.25;5015518;28;1166;-78
2023/06/16 04:23:36;;;;;;;;;;;;;;;21.72;30.18;97445.91;4982483;28;1259;-77
2023/06/16 04:26:02;;;;;;;;;;;;;;;22.08;29.40;97439.72;5015782;28;1082;-77
2023/06/16 04:28:30;;;;;;;;;;;;;;;22.12;29.42;97431.88;5014738;28;1963;-78
2023/06/16 04:30:56;;;;;;;;;;;;;;;22.16;29.19;97438.22;5015519;28;1314;-78
2023/06/16 04:33:23;;;;;;;;;;;;;;;22.05;29.67;97438.59;4982408;28;1191;-78
2023/06/16 04:35:50;;;;;;;;;;;;;;;21.87;29.71;97437.69;5003894;28;1004;-78
2023/06/16 04:38:17;;;;;;;;;;;;;;;21.73;30.13;97434.13;5034687;28;1159;-77
2023/06/16 04:40:43;;;;;;;;;;;;;;;21.69;30.25;97438.31;4985784;28;1203;-78
2023/06/16 04:43:09;;;;;;;;;;;;;;;21.71;30.01;97442.28;4985637;28;1258;-78
2023/06/16 04:45:34;;;;;;;;;;;;;;;21.63;30.12;97440.16;4982632;28;1256;-78
2023/06/16 04:48:00;;;;;;;;;;;;;;;21.52;30.64;97440.53;4982346;28;1910;-77
2023/06/16 04:50:28;;;;;;;;;;;;;;;21.70;30.33;97443.50;4998613;28;1312;-78
2023/06/16 04:52:54;;;;;;;;;;;;;;;21.91;29.96;97444.78;4998727;28;1102;-78
2023/06/16 04:55:20;;;;;;;;;;;;;;;22.12;29.55;97440.38;4982390;28;1198;-78
2023/06/16 04:57:46;;;;;;;;;;;;;;;21.79;30.13;97432.25;4950593;28;1097;-78
2023/06/16 05:00:12;;;;;;;;;;;;;;;22.07;29.75;97438.13;4962517;28;1180;-79
2023/06/16 05:02:39;;;;;;;;;;;;;;;21.64;30.46;97433.25;4944148;29;1468;-78
2023/06/16 05:05:04;;;;;;;;;;;;;;;21.79;30.25;97425.81;4927428;29;1216;-77
2023/06/16 05:07:31;;;;;;;;;;;;;;;21.69;30.36;97416.44;4959611;29;1994;-78
2023/06/16 05:09:57;;;;;;;;;;;;;;;21.87;29.99;97415.03;4943712;29;902;-78
2023/06/16 05:12:24;;;;;;;;;;;;;;;22.11;29.47;97418.97;4943747;29;984;-78
2023/06/16 05:14:50;;;;;;;;;;;;;;;21.94;29.95;97426.09;4928111;29;1203;-78
2023/06/16 05:17:15;;;;;;;;;;;;;;;22.05;29.71;97423.63;4958910;28;1153;-77
2023/06/16 05:19:41;;;;;;;;;;;;;;;21.95;29.78;97416.34;4962478;28;1118;-77
2023/06/16 05:22:07;;;;;;;;;;;;;;;21.82;29.99;97420.03;4962682;28;1248;-78
2023/06/16 05:24:34;;;;;;;;;;;;;;;22.19;29.64;97414.63;4959292;29;1156;-78
2023/06/16 05:27:01;;;;;;;;;;;;;;;21.84;30.06;97420.34;4924248;29;1975;-78
2023/06/16 05:29:27;;;;;;;;;;;;;;;22.15;29.89;97418.84;4924113;29;1170;-78
2023/06/16 05:31:54;;;;;;;;;;;;;;;21.82;30.21;97422.88;4880921;29;1257;-79
2023/06/16 05:34:20;;;;;;;;;;;;;;;22.05;29.83;97427.25;4879825;29;1186;-77
2023/06/16 05:36:45;;;;;;;;;;;;;;;22.22;29.48;97427.88;4866563;29;1167;-77
2023/06/16 05:39:15;;;;;;;;;;;;;;;22.12;29.88;97431.09;4882461;29;1422;-78
2023/06/16 05:41:43;;;;;;;;;;;;;;;22.06;29.86;97445.03;4882615;29;1109;-77
2023/06/16 05:44:12;;;;;;;;;;;;;;;22.14;29.65;97437.91;4882522;29;1194;-77
2023/06/16 05:46:37;;;;;;;;;;;;;;;21.93;29.95;97447.16;4882538;29;1167;-78
2023/06/16 05:49:04;;;;;;;;;;;;;;;22.16;29.88;97449.56;4882532;29;1915;-77
2023/06/16 05:51:29;;;;;;;;;;;;;;;22.15;29.96;97456.47;4881505;29;909;-77
2023/06/16 05:53:55;;;;;;;;;;;;;;;21.93;30.27;97452.84;4882150;29;1078;-77
2023/06/16 05:56:23;;;;;;;;;;;;;;;21.97;30.18;97453.50;4914039;29;1193;-77
2023/06/16 05:58:50;;;;;;;;;;;;;;;22.29;29.70;97452.31;4968678;28;1448;-77
2023/06/16 06:01:15;;;;;;;;;;;;;;;21.96;29.79;97451.91;4961208;28;1105;-78
2023/06/16 06:03:45;;;;;;;;;;;;;;;21.96;29.91;97451.91;4997148;28;1136;-77
2023/06/16 06:06:10;;;;;;;;;;;;;;;22.23;29.55;97457.81;4984627;28;1199;-76
2023/06/16 06:08:36;;;;;;;;;;;;;;;22.22;29.63;97458.25;4984140;28;1910;-77
2023/06/16 06:11:06;;;;;;;;;;;;;;;22.02;30.01;97455.72;5000772;28;1285;-77
2023/06/16 06:13:31;;;;;;;;;;;;;;;22.08;30.09;97451.06;4984744;28;1272;-77
2023/06/16 06:15:58;;;;;;;;;;;;;;;22.34;29.71;97463.84;5000902;28;1128;-77
2023/06/16 06:18:23;;;;;;;;;;;;;;;22.01;30.21;97459.81;5016980;28;1146;-77
2023/06/16 06:20:49;;;;;;;;;;;;;;;22.12;29.81;97459.44;5017384;28;1290;-77
2023/06/16 06:23:15;;;;;;;;;;;;;;;22.01;30.14;97465.47;4984280;28;1153;-77
2023/06/16 06:25:42;;;;;;;;;;;;;;;21.88;30.35;97462.72;5000684;28;1267;-77
2023/06/16 06:28:09;;;;;;;;;;;;;;;22.16;29.94;97465.78;5000393;28;1914;-77
2023/06/16 06:30:36;;;;;;;;;;;;;;;22.17;30.04;97473.78;5000572;28;1151;-77
2023/06/16 06:33:02;;;;;;;;;;;;;;;21.99;30.38;97474.44;4999755;28;1255;-78
2023/06/16 06:35:28;;;;;;;;;;;;;;;22.12;29.88;97471.56;5016940;28;1571;-78
2023/06/16 06:37:54;;;;;;;;;;;;;;;22.07;30.14;97464.44;4999951;28;1226;-77
2023/06/16 06:40:20;;;;;;;;;;;;;;;22.10;30.14;97479.72;5016630;28;1233;-77
2023/06/16 06:42:46;;;;;;;;;;;;;;;22.20;30.06;97472.88;5016380;28;941;-77
2023/06/16 06:45:40;;;;;;;;;;;;;;;22.23;29.85;97471.97;5000009;28;1348;-76
2023/06/16 06:48:06;;;;;;;;;;;;;;;22.10;30.04;97479.72;5000139;28;1993;-77
2023/06/16 06:50:31;;;;;;;;;;;;;;;22.06;29.79;97474.16;4995953;28;1211;-77
2023/06/16 06:52:57;;;;;;;;;;;;;;;21.91;30.22;97475.16;4979230;28;1193;-77
2023/06/16 06:55:22;;;;;;;;;;;;;;;22.12;29.84;97470.78;4979450;28;865;-77
2023/06/16 06:57:49;;;;;;;;;;;;;;;22.14;30.06;97469.06;4980201;28;1053;-78
2023/06/16 07:00:15;;;;;;;;;;;;;;;22.06;30.24;97477.00;4979664;28;939;-77
2023/06/16 07:02:41;;;;;;;;;;;;;;;22.13;30.13;97480.88;4979604;28;911;-78
2023/06/16 07:05:08;;;;;;;;;;;;;;;22.22;29.90;97476.03;4963382;28;958;-77
2023/06/16 07:07:34;;;;;;;;;;;;;;;22.11;30.08;97475.66;4963632;28;1910;-77
2023/06/16 07:09:59;;;;;;;;;;;;;;;22.25;29.89;97474.34;4995606;28;1104;-77
2023/06/16 07:12:25;;;;;;;;;;;;;;;22.23;30.06;97482.53;4996071;28;982;-77
2023/06/16 07:14:50;;;;;;;;;;;;;;;22.26;29.94;97476.69;4995356;28;1030;-78
2023/06/16 07:17:16;;;;;;;;;;;;;;;21.96;30.10;97477.38;4995798;28;966;-78
2023/06/16 07:19:41;;;;;;;;;;;;;;;22.02;30.24;97472.72;4995126;28;879;-77
2023/06/16 07:22:07;;;;;;;;;;;;;;;22.08;30.29;97471.69;4994907;28;923;-77
2023/06/16 07:24:32;;;;;;;;;;;;;;;21.91;30.50;97472.31;5000229;28;860;-78
2023/06/16 07:27:01;;;;;;;;;;;;;;;21.97;30.59;97474.13;5017649;28;855;-77
2023/06/16 07:29:26;;;;;;;;;;;;;;;22.20;30.03;97472.88;5016979;28;969;-77
2023/06/16 07:31:52;;;;;;;;;;;;;;;22.27;30.02;97486.00;4982570;28;972;-78
2023/06/16 07:34:18;;;;;;;;;;;;;;;22.32;29.91;97480.50;5017040;28;974;-78
2023/06/16 07:36:43;;;;;;;;;;;;;;;22.18;30.10;97481.06;4999786;28;1083;-77
2023/06/16 07:39:09;;;;;;;;;;;;;;;22.09;30.07;97476.09;4999592;28;927;-77
2023/06/16 07:41:34;;;;;;;;;;;;;;;21.89;30.70;97480.50;5011879;28;1192;-77
2023/06/16 07:44:00;;;;;;;;;;;;;;;21.91;30.43;97478.75;5017181;28;834;-77
2023/06/16 07:46:25;;;;;;;;;;;;;;;22.19;30.17;97476.97;5016967;28;1083;-77
2023/06/16 07:48:51;;;;;;;;;;;;;;;22.05;30.43;97477.47;5015410;28;1980;-77
2023/06/16 07:51:16;;;;;;;;;;;;;;;21.79;30.95;97474.75;5016432;28;934;-77
2023/06/16 07:53:42;;;;;;;;;;;;;;;22.04;30.27;97487.22;5016614;28;941;-77
2023/06/16 07:56:08;;;;;;;;;;;;;;;22.03;30.32;97477.16;5016282;28;925;-77
2023/06/16 07:58:35;;;;;;;;;;;;;;;22.03;30.50;97486.44;5015810;28;959;-77
2023/06/16 08:01:01;;;;;;;;;;;;;;;22.35;29.67;97481.66;5015909;28;901;-77
2023/06/16 08:03:26;;;;;;;;;;;;;;;21.90;30.48;97482.84;5015147;28;974;-77
2023/06/16 08:05:52;;;;;;;;;;;;;;;22.15;30.22;97487.66;5015570;28;898;-77
2023/06/16 08:08:18;;;;;;;;;;;;;;;22.25;30.15;97477.16;5015595;28;1985;-76
2023/06/16 08:10:44;;;;;;;;;;;;;;;22.29;30.07;97481.47;5016738;28;868;-77
2023/06/16 08:13:10;;;;;;;;;;;;;;;22.25;30.07;97480.00;4999513;28;1152;-77
2023/06/16 08:15:35;;;;;;;;;;;;;;;22.21;30.17;97488.63;5018386;28;1225;-77
2023/06/16 08:18:01;;;;;;;;;;;;;;;22.03;30.50;97475.09;5018057;28;1065;-77
2023/06/16 08:20:26;;;;;;;;;;;;;;;21.90;30.73;97476.41;5019778;28;1048;-78
2023/06/16 08:22:52;;;;;;;;;;;;;;;22.17;30.22;97478.69;5018752;28;985;-77
2023/06/16 08:25:17;;;;;;;;;;;;;;;22.24;29.90;97479.22;5019168;28;960;-77
2023/06/16 08:27:43;;;;;;;;;;;;;;;22.32;29.80;97472.00;5020121;28;1969;-77
2023/06/16 08:30:10;;;;;;;;;;;;;;;22.18;30.30;97472.56;5020121;28;896;-77
2023/06/16 08:32:35;;;;;;;;;;;;;;;21.92;30.50;97465.41;5003177;28;1152;-78
2023/06/16 08:35:01;;;;;;;;;;;;;;;22.23;30.28;97465.53;4997956;28;1079;-77
2023/06/16 08:37:27;;;;;;;;;;;;;;;22.47;29.67;97468.63;4965996;28;1184;-77
2023/06/16 08:39:52;;;;;;;;;;;;;;;22.30;30.36;97468.84;4981340;28;1203;-77
2023/06/16 08:42:18;;;;;;;;;;;;;;;22.07;30.48;97463.63;4998404;28;1095;-77
2023/06/16 08:44:43;;;;;;;;;;;;;;;22.21;30.33;97474.47;4981646;28;951;-77
2023/06/16 08:47:09;;;;;;;;;;;;;;;22.19;30.27;97473.34;4981720;28;1980;-77
2023/06/16 08:49:35;;;;;;;;;;;;;;;22.07;30.52;97463.63;4958593;28;936;-77
2023/06/16 08:52:05;;;;;;;;;;;;;;;22.24;30.39;97459.38;4943100;29;952;-77
2023/06/16 08:54:37;;;;;;;;;;;;;;;22.22;30.42;97466.75;4942850;29;943;-77
2023/06/16 08:57:03;;;;;;;;;;;;;;;22.29;30.20;97461.63;4959137;28;1156;-77
2023/06/16 08:59:30;;;;;;;;;;;;;;;22.32;30.31;97457.84;4910771;29;1160;-77
2023/06/16 09:01:56;;;;;;;;;;;;;;;22.25;30.37;97458.13;4943108;29;955;-77
2023/06/16 09:04:22;;;;;;;;;;;;;;;22.41;30.19;97468.44;4942554;29;1014;-77
2023/06/16 09:06:48;;;;;;;;;;;;;;;22.35;30.24;97462.59;4975199;28;974;-77
2023/06/16 09:09:14;;;;;;;;;;;;;;;22.05;30.91;97466.13;4961411;28;1982;-77
2023/06/16 09:11:41;;;;;;;;;;;;;;;22.10;30.51;97460.69;4962170;28;960;-77
2023/06/16 09:14:10;;;;;;;;;;;;;;;22.26;30.48;97465.38;4977608;28;1117;-77
2023/06/16 09:16:37;;;;;;;;;;;;;;;22.17;30.60;97461.69;4978139;28;958;-77
2023/06/16 09:19:06;;;;;;;;;;;;;;;22.38;30.24;97451.56;4945567;28;847;-77
2023/06/16 09:21:32;;;;;;;;;;;;;;;22.47;30.20;97460.13;5028176;28;945;-77
2023/06/16 09:23:57;;;;;;;;;;;;;;;22.26;30.47;97462.53;5018972;28;808;-77
2023/06/16 09:26:32;;;;;;;;;;;;;;;22.33;30.39;97459.44;5018925;28;882;-77
2023/06/16 09:28:57;;;;;;;;;;;;;;;22.31;30.53;97456.25;5018547;28;1906;-77
2023/06/16 09:31:23;;;;;;;;;;;;;;;22.20;30.54;97463.59;5018613;28;850;-77
2023/06/16 09:33:49;;;;;;;;;;;;;;;22.31;30.39;97464.78;5016728;28;953;-77
2023/06/16 09:36:26;;;;;;;;;;;;;;;22.49;29.94;97463.31;5016575;28;896;-77
2023/06/16 09:38:52;;;;;;;;;;;;;;;22.30;30.55;97468.84;5016275;28;982;-77
2023/06/16 09:41:18;;;;;;;;;;;;;;;22.39;30.43;97467.34;5016598;28;1053;-77
2023/06/16 09:43:44;;;;;;;;;;;;;;;22.11;30.70;97455.81;4999670;28;915;-77
2023/06/16 09:46:13;;;;;;;;;;;;;;;22.32;30.42;97463.50;5016600;28;889;-76
2023/06/16 09:48:45;;;;;;;;;;;;;;;22.27;30.55;97461.28;4995953;28;1922;-77
2023/06/16 09:51:10;;;;;;;;;;;;;;;22.38;30.37;97458.03;4964564;28;900;-77
2023/06/16 09:53:36;;;;;;;;;;;;;;;22.47;30.06;97462.97;4979808;28;925;-77
2023/06/16 09:56:01;;;;;;;;;;;;;;;22.27;30.48;97461.28;4980637;28;1113;-77
2023/06/16 09:58:27;;;;;;;;;;;;;;;22.35;30.53;97454.09;4980803;28;873;-77
2023/06/16 10:00:52;;;;;;;;;;;;;;;22.46;30.09;97455.72;4997005;28;971;-77
2023/06/16 10:03:18;;;;;;;;;;;;;;;22.04;30.66;97453.22;4980503;28;1033;-76
2023/06/16 10:05:44;;;;;;;;;;;;;;;22.28;30.51;97457.22;4980404;28;987;-77
2023/06/16 10:08:10;;;;;;;;;;;;;;;22.36;30.48;97452.84;4996121;28;1997;-76
2023/06/16 10:10:36;;;;;;;;;;;;;;;22.02;31.00;97455.72;4996293;28;914;-77
2023/06/16 10:13:04;;;;;;;;;;;;;;;22.20;30.66;97450.22;4980298;28;916;-76
2023/06/16 10:15:34;;;;;;;;;;;;;;;22.20;30.65;97455.09;4966447;28;1409;-77
2023/06/16 10:18:03;;;;;;;;;;;;;;;21.98;31.07;97446.56;5015581;28;888;-76
2023/06/16 10:20:30;;;;;;;;;;;;;;;22.03;30.97;97452.44;5014700;28;1080;-77
2023/06/16 10:22:56;;;;;;;;;;;;;;;22.22;30.39;97456.19;5037433;28;1036;-77
2023/06/16 10:25:21;;;;;;;;;;;;;;;22.24;30.46;97453.72;5036382;28;924;-78
2023/06/16 10:27:47;;;;;;;;;;;;;;;22.41;30.17;97454.28;5037472;28;1987;-77
2023/06/16 10:30:16;;;;;;;;;;;;;;;22.33;30.19;97464.31;5037153;28;1123;-77
2023/06/16 10:32:52;;;;;;;;;;;;;;;22.33;30.48;97458.66;5036487;28;890;-77
2023/06/16 10:35:18;;;;;;;;;;;;;;;22.48;30.12;97458.88;5036595;28;846;-77
2023/06/16 10:37:48;;;;;;;;;;;;;;;22.45;30.25;97459.81;5035807;28;1011;-77
2023/06/16 10:40:14;;;;;;;;;;;;;;;22.49;30.07;97463.31;5036291;28;1185;-77
2023/06/16 10:42:40;;;;;;;;;;;;;;;22.36;30.20;97469.84;5037680;28;869;-77
2023/06/16 10:45:25;;;;;;;;;;;;;;;22.52;29.98;97477.34;5019791;28;1230;-77
2023/06/16 10:48:11;;;;;;;;;;;;;;;21.97;31.09;97476.16;5036553;28;1906;-77
2023/06/16 10:50:40;;;;;;;;;;;;;;;22.34;30.40;97478.03;5036355;28;956;-77
2023/06/16 10:53:12;;;;;;;;;;;;;;;22.18;30.59;97468.94;5035709;28;910;-78
2023/06/16 10:55:41;;;;;;;;;;;;;;;22.24;30.55;97475.59;5035339;28;929;-77
2023/06/16 10:58:19;;;;;;;;;;;;;;;22.43;30.28;97465.16;5035046;28;1034;-77
2023/06/16 11:00:45;;;;;;;;;;;;;;;22.31;30.09;97478.16;5018486;28;947;-77
2023/06/16 11:03:10;;;;;;;;;;;;;;;22.46;30.19;97484.06;5034932;28;886;-77
2023/06/16 11:05:36;;;;;;;;;;;;;;;22.18;30.83;97486.75;5018631;28;1192;-76
2023/06/16 11:08:05;;;;;;;;;;;;;;;22.30;30.40;97477.38;5014747;28;1914;-77
2023/06/16 11:10:31;;;;;;;;;;;;;;;22.20;30.51;97484.22;5015220;28;945;-77
2023/06/16 11:12:56;;;;;;;;;;;;;;;22.24;30.66;97479.22;5014555;28;1380;-76
2023/06/16 11:15:23;;;;;;;;;;;;;;;22.09;30.47;97470.41;5015025;28;1092;-77
2023/06/16 11:17:48;;;;;;;;;;;;;;;22.24;30.58;97476.38;5015065;28;959;-77
2023/06/16 11:20:14;;;;;;;;;;;;;;;22.26;30.41;97476.69;5014760;28;1184;-77
2023/06/16 11:22:39;;;;;;;;;;;;;;;22.15;30.48;97476.31;5015371;28;1143;-77
2023/06/16 11:25:05;;;;;;;;;;;;;;;22.26;30.51;97482.38;5014799;28;1138;-77
2023/06/16 11:27:31;;;;;;;;;;;;;;;22.18;30.63;97481.06;4978596;28;1910;-77
2023/06/16 11:29:57;;;;;;;;;;;;;;;22.26;30.50;97479.53;4976138;28;1016;-77
2023/06/16 11:32:27;;;;;;;;;;;;;;;22.33;30.59;97472.81;4959953;28;1116;-76
2023/06/16 11:34:55;;;;;;;;;;;;;;;22.38;30.31;97477.09;4959695;28;965;-77
2023/06/16 11:37:41;;;;;;;;;;;;;;;22.32;30.40;97468.38;4960015;28;1236;-77
2023/06/16 11:40:07;;;;;;;;;;;;;;;21.93;30.87;97469.84;4921406;29;1163;-77
2023/06/16 11:42:33;;;;;;;;;;;;;;;22.20;30.67;97472.09;4906386;29;1113;-77
2023/06/16 11:44:58;;;;;;;;;;;;;;;22.18;30.63;97466.91;4905741;29;1074;-77
2023/06/16 11:47:24;;;;;;;;;;;;;;;22.20;30.63;97464.38;4921884;29;1915;-77
2023/06/16 11:49:49;;;;;;;;;;;;;;;22.14;30.80;97463.41;4923278;29;1146;-77
2023/06/16 11:52:15;;;;;;;;;;;;;;;22.15;30.50;97464.97;4926393;29;1002;-77
2023/06/16 11:54:40;;;;;;;;;;;;;;;22.25;30.42;97469.47;4925122;29;1018;-77
2023/06/16 11:57:06;;;;;;;;;;;;;;;22.18;30.68;97464.06;4925502;29;990;-76
2023/06/16 11:59:32;;;;;;;;;;;;;;;21.95;30.87;97456.00;4940819;29;1116;-77
2023/06/16 12:01:58;;;;;;;;;;;;;;;21.99;30.82;97459.50;4925365;29;950;-77
2023/06/16 12:04:26;;;;;;;;;;;;;;;22.21;30.53;97457.47;4925012;29;939;-77
2023/06/16 12:06:53;;;;;;;;;;;;;;;22.33;30.44;97438.81;4940797;29;950;-77
2023/06/16 12:09:19;;;;;;;;;;;;;;;22.33;30.27;97431.09;4924697;29;1903;-77
2023/06/16 12:11:46;;;;;;;;;;;;;;;22.28;30.70;97434.53;4940612;29;919;-77
2023/06/16 12:14:16;;;;;;;;;;;;;;;22.35;30.40;97434.25;4924738;29;855;-77
2023/06/16 12:16:41;;;;;;;;;;;;;;;22.19;30.41;97420.31;4936051;28;1029;-77
2023/06/16 12:19:07;;;;;;;;;;;;;;;22.08;30.85;97411.41;4993789;28;1131;-77
2023/06/16 12:21:32;;;;;;;;;;;;;;;22.42;30.30;97407.66;5001749;28;894;-76
2023/06/16 12:23:58;;;;;;;;;;;;;;;22.39;30.24;97416.31;5017927;28;771;-77
2023/06/16 12:26:24;;;;;;;;;;;;;;;22.41;30.31;97413.81;5018351;28;976;-76
2023/06/16 12:28:51;;;;;;;;;;;;;;;22.36;30.39;97412.34;5017501;28;1910;-77
2023/06/16 12:31:17;;;;;;;;;;;;;;;22.12;30.79;97409.22;5018218;28;902;-77
2023/06/16 12:33:42;;;;;;;;;;;;;;;22.17;30.64;97411.47;5017787;28;997;-77
2023/06/16 12:36:09;;;;;;;;;;;;;;;22.19;30.78;97397.63;5017741;28;951;-76
2023/06/16 12:38:34;;;;;;;;;;;;;;;22.32;30.71;97395.47;5034166;28;909;-78
2023/06/16 12:41:00;;;;;;;;;;;;;;;22.03;30.99;97389.31;5039319;28;1164;-77
2023/06/16 12:43:25;;;;;;;;;;;;;;;22.11;31.00;97396.31;5038693;28;958;-77
2023/06/16 12:45:51;;;;;;;;;;;;;;;22.30;30.60;97383.84;5040389;28;924;-77
2023/06/16 12:48:17;;;;;;;;;;;;;;;22.25;30.77;97395.78;5005259;28;1961;-78
2023/06/16 12:50:42;;;;;;;;;;;;;;;22.27;30.76;97381.91;5022169;28;1204;-77
2023/06/16 12:53:08;;;;;;;;;;;;;;;22.39;30.40;97390.81;5022117;28;1104;-77
2023/06/16 12:55:34;;;;;;;;;;;;;;;22.22;30.62;97391.03;5038436;28;889;-77
2023/06/16 12:57:59;;;;;;;;;;;;;;;22.22;30.51;97387.41;5039399;28;881;-77